createdAt,value
2023-03-29T00:00:14.045Z,6.63
2023-03-29T00:02:43.298Z,6.80
2023-03-29T00:05:12.234Z,6.82
2023-03-29T00:07:41.171Z,6.97
2023-03-29T00:10:13.452Z,6.95
2023-03-29T00:12:42.604Z,7.03
2023-03-29T00:15:11.953Z,6.99
2023-03-29T00:17:40.353Z,6.85
2023-03-29T00:20:10.426Z,7.11
2023-03-29T00:22:42.013Z,7.27
2023-03-29T00:25:12.798Z,7.41
2023-03-29T00:27:41.522Z,7.12
2023-03-29T00:30:11.326Z,7.12
2023-03-29T00:32:39.551Z,7.18
2023-03-29T00:35:09.823Z,7.29
2023-03-29T00:37:39.603Z,7.44
2023-03-29T00:40:12.686Z,7.32
2023-03-29T00:42:44.646Z,7.42
2023-03-29T00:45:21.862Z,7.45
2023-03-29T00:47:52.884Z,7.36
2023-03-29T00:50:25.880Z,7.31
2023-03-29T00:53:00.823Z,7.29
2023-03-29T00:55:35.463Z,7.25
2023-03-29T00:58:05.399Z,7.24
2023-03-29T01:00:39.041Z,7.38
2023-03-29T01:03:14.346Z,7.32
2023-03-29T01:05:47.609Z,7.46
2023-03-29T01:08:21.931Z,7.53
2023-03-29T01:10:57.420Z,7.40
2023-03-29T01:13:34.737Z,7.34
2023-03-29T01:16:04.329Z,7.25
2023-03-29T01:18:33.589Z,7.41
2023-03-29T01:21:20.265Z,7.40
2023-03-29T01:24:19.720Z,7.37
2023-03-29T01:26:59.602Z,7.19
2023-03-29T01:29:34.805Z,7.33
2023-03-29T01:32:12.837Z,7.32
2023-03-29T01:34:49.511Z,7.28
2023-03-29T01:37:24.727Z,7.24
2023-03-29T01:39:53.809Z,7.34
2023-03-29T01:42:39.078Z,7.18
2023-03-29T01:45:23.862Z,7.18
2023-03-29T01:47:59.662Z,7.28
2023-03-29T01:50:42.312Z,7.39
2023-03-29T01:53:18.013Z,7.43
2023-03-29T01:55:51.206Z,7.48
2023-03-29T01:58:22.642Z,7.50
2023-03-29T02:00:55.513Z,7.43
2023-03-29T02:03:28.088Z,7.52
2023-03-29T02:05:58.084Z,7.57
2023-03-29T02:08:30.947Z,7.62
2023-03-29T02:10:59.504Z,7.59
2023-03-29T02:13:27.875Z,7.57
2023-03-29T02:16:00.137Z,7.75
2023-03-29T02:18:28.806Z,7.73
2023-03-29T02:20:59.378Z,7.66
2023-03-29T02:23:34.049Z,7.65
2023-03-29T02:26:03.314Z,7.72
2023-03-29T02:28:33.272Z,7.81
2023-03-29T02:31:10.940Z,7.63
2023-03-29T02:33:47.351Z,7.63
2023-03-29T02:36:22.402Z,7.62
2023-03-29T02:38:50.765Z,7.60
2023-03-29T02:41:19.677Z,7.70
2023-03-29T02:43:49.380Z,7.74
2023-03-29T02:46:20.588Z,7.67
2023-03-29T02:48:52.813Z,7.66
2023-03-29T02:51:26.122Z,7.65
2023-03-29T02:54:00.989Z,7.67
2023-03-29T02:56:29.325Z,7.70
2023-03-29T02:58:57.475Z,7.79
2023-03-29T03:01:27.844Z,7.79
2023-03-29T03:03:56.104Z,7.78
2023-03-29T03:06:24.419Z,7.82
2023-03-29T03:08:52.694Z,7.80
2023-03-29T03:11:21.176Z,7.86
2023-03-29T03:13:49.666Z,7.76
2023-03-29T03:16:17.943Z,7.80
2023-03-29T03:18:48.646Z,7.84
2023-03-29T03:21:17.759Z,7.90
2023-03-29T03:23:46.127Z,7.96
2023-03-29T03:26:15.263Z,7.89
2023-03-29T03:28:45.949Z,7.85
2023-03-29T03:31:31.341Z,7.93
2023-03-29T03:34:17.371Z,8.02
2023-03-29T03:36:54.685Z,7.96
2023-03-29T03:39:23.185Z,8.08
2023-03-29T03:41:51.786Z,8.09
2023-03-29T03:44:20.929Z,7.99
2023-03-29T03:46:59.973Z,7.96
2023-03-29T03:49:29.968Z,8.04
2023-03-29T03:51:58.105Z,8.07
2023-03-29T03:54:26.532Z,8.07
2023-03-29T03:57:13.763Z,8.14
2023-03-29T03:59:47.626Z,8.10
2023-03-29T04:02:22.006Z,8.10
2023-03-29T04:04:51.662Z,8.21
2023-03-29T04:07:20.898Z,8.25
2023-03-29T04:09:58.262Z,8.40
2023-03-29T04:12:39.150Z,8.25
2023-03-29T04:15:12.592Z,8.25
2023-03-29T04:17:46.664Z,8.36
2023-03-29T04:20:42.745Z,8.27
2023-03-29T04:23:12.327Z,8.30
2023-03-29T04:25:41.871Z,8.46
2023-03-29T04:28:28.704Z,8.61
2023-03-29T04:31:12.514Z,8.42
2023-03-29T04:33:53.733Z,8.60
2023-03-29T04:36:23.613Z,8.51
2023-03-29T04:38:52.658Z,8.36
2023-03-29T04:41:21.270Z,8.45
2023-03-29T04:44:03.639Z,8.50
2023-03-29T04:46:33.319Z,8.48
2023-03-29T04:49:23.900Z,8.44
2023-03-29T04:51:55.257Z,8.49
2023-03-29T04:54:28.028Z,8.48
2023-03-29T04:57:09.873Z,8.53
2023-03-29T05:00:01.271Z,8.43
2023-03-29T05:02:58.803Z,8.39
2023-03-29T05:05:28.945Z,8.43
2023-03-29T05:08:02.208Z,8.47
2023-03-29T05:10:49.775Z,8.64
2023-03-29T05:13:18.750Z,8.62
2023-03-29T05:15:47.923Z,8.56
2023-03-29T05:18:16.165Z,8.65
2023-03-29T05:20:45.712Z,8.71
2023-03-29T05:23:18.904Z,8.77
2023-03-29T05:26:08.183Z,8.67
2023-03-29T05:28:36.535Z,8.59
2023-03-29T05:31:07.047Z,8.70
2023-03-29T05:33:39.728Z,8.77
2023-03-29T05:36:13.420Z,8.77
2023-03-29T05:38:50.108Z,8.77
2023-03-29T05:41:20.682Z,8.76
2023-03-29T05:44:08.317Z,8.72
2023-03-29T05:46:37.834Z,8.64
2023-03-29T05:49:06.487Z,8.64
2023-03-29T05:51:56.813Z,8.69
2023-03-29T05:54:27.137Z,8.75
2023-03-29T05:56:55.854Z,8.79
2023-03-29T05:59:24.690Z,8.81
2023-03-29T06:01:52.879Z,8.85
2023-03-29T06:04:22.797Z,8.90
2023-03-29T06:07:20.722Z,8.88
2023-03-29T06:10:11.843Z,8.92
2023-03-29T06:12:43.232Z,8.94
2023-03-29T06:15:13.278Z,9.01
2023-03-29T06:18:00.723Z,9.07
2023-03-29T06:20:29.105Z,8.88
2023-03-29T06:23:03.645Z,9.03
2023-03-29T06:25:34.110Z,9.23
2023-03-29T06:28:02.554Z,9.20
2023-03-29T06:30:30.716Z,9.29
2023-03-29T06:33:00.978Z,9.56
2023-03-29T06:35:49.668Z,9.45
2023-03-29T06:38:22.568Z,9.51
2023-03-29T06:41:11.050Z,9.47
2023-03-29T06:44:04.756Z,9.42
2023-03-29T06:46:38.284Z,9.46
2023-03-29T06:49:08.992Z,9.47
2023-03-29T06:52:04.843Z,9.49
2023-03-29T06:54:33.765Z,9.65
2023-03-29T06:57:05.786Z,9.67
2023-03-29T06:59:35.596Z,9.69
2023-03-29T07:02:23.654Z,9.73
2023-03-29T07:04:57.780Z,9.85
2023-03-29T07:07:44.022Z,9.71
2023-03-29T07:10:32.057Z,9.80
2023-03-29T07:13:20.382Z,9.82
2023-03-29T07:15:51.406Z,9.86
2023-03-29T07:18:22.810Z,9.89
2023-03-29T07:20:52.177Z,10.04
2023-03-29T07:23:20.379Z,10.29
2023-03-29T07:25:50.384Z,10.14
2023-03-29T07:28:20.643Z,10.07
2023-03-29T07:30:49.548Z,10.22
2023-03-29T07:33:20.744Z,10.19
2023-03-29T07:35:55.268Z,10.10
2023-03-29T07:38:23.678Z,10.30
2023-03-29T07:41:14.434Z,10.36
2023-03-29T07:43:54.192Z,10.25
2023-03-29T07:46:26.178Z,10.39
2023-03-29T07:48:56.634Z,10.51
2023-03-29T07:51:25.008Z,10.58
2023-03-29T07:54:00.604Z,10.48
2023-03-29T07:56:52.001Z,10.74
2023-03-29T07:59:34.223Z,10.45
2023-03-29T08:02:11.595Z,10.66
2023-03-29T08:04:43.108Z,10.35
2023-03-29T08:07:19.726Z,10.53
2023-03-29T08:10:10.173Z,10.56
2023-03-29T08:12:59.044Z,10.79
2023-03-29T08:15:39.309Z,10.63
2023-03-29T08:18:14.099Z,10.92
2023-03-29T08:20:42.480Z,11.05
2023-03-29T08:23:12.878Z,10.93
2023-03-29T08:26:05.714Z,10.88
2023-03-29T08:28:34.440Z,10.90
2023-03-29T08:31:04.596Z,10.67
2023-03-29T08:33:33.333Z,10.84
2023-03-29T08:36:24.347Z,10.85
2023-03-29T08:38:55.879Z,10.91
2023-03-29T08:41:39.564Z,10.94
2023-03-29T08:44:23.504Z,10.97
2023-03-29T08:47:13.687Z,11.25
2023-03-29T08:49:51.027Z,11.00
2023-03-29T08:52:32.028Z,11.12
2023-03-29T08:55:18.744Z,11.52
2023-03-29T08:58:13.631Z,11.60
2023-03-29T09:00:48.095Z,11.74
2023-03-29T09:03:23.873Z,11.70
2023-03-29T09:06:00.852Z,11.36
2023-03-29T09:08:29.529Z,11.58
2023-03-29T09:11:21.793Z,11.62
2023-03-29T09:13:59.035Z,11.75
2023-03-29T09:16:36.311Z,12.01
2023-03-29T09:19:17.418Z,11.76
2023-03-29T09:21:57.014Z,11.72
2023-03-29T09:24:48.181Z,11.86
2023-03-29T09:27:27.569Z,11.80
2023-03-29T09:30:15.241Z,11.66
2023-03-29T09:32:54.766Z,11.55
2023-03-29T09:35:37.068Z,11.57
2023-03-29T09:38:10.644Z,11.74
2023-03-29T09:40:46.033Z,11.65
2023-03-29T09:43:33.155Z,11.55
2023-03-29T09:46:08.328Z,11.82
2023-03-29T09:48:42.295Z,11.68
2023-03-29T09:51:15.560Z,11.86
2023-03-29T09:53:43.812Z,11.93
2023-03-29T09:56:34.710Z,12.20
2023-03-29T09:59:12.911Z,12.03
2023-03-29T10:01:45.959Z,12.00
2023-03-29T10:04:16.685Z,12.08
2023-03-29T10:06:53.777Z,12.26
2023-03-29T10:09:25.305Z,12.49
2023-03-29T10:12:03.399Z,12.39
2023-03-29T10:14:38.141Z,12.68
2023-03-29T10:17:14.603Z,12.54
2023-03-29T10:19:50.341Z,12.29
2023-03-29T10:22:24.685Z,12.01
2023-03-29T10:24:54.892Z,12.16
2023-03-29T10:27:28.050Z,12.29
2023-03-29T10:29:59.086Z,12.28
2023-03-29T10:32:34.142Z,12.15
2023-03-29T10:35:10.710Z,11.97
2023-03-29T10:37:43.123Z,12.37
2023-03-29T10:40:22.988Z,12.52
2023-03-29T10:42:53.786Z,12.91
2023-03-29T10:45:27.110Z,12.58
2023-03-29T10:47:57.214Z,12.31
2023-03-29T10:50:26.594Z,12.44
2023-03-29T10:52:56.385Z,12.28
2023-03-29T10:55:33.114Z,12.50
2023-03-29T10:58:17.680Z,12.75
2023-03-29T11:00:53.263Z,12.52
2023-03-29T11:03:48.142Z,12.54
2023-03-29T11:06:29.062Z,12.70
2023-03-29T11:09:02.888Z,13.15
2023-03-29T11:11:46.478Z,13.38
2023-03-29T11:14:28.380Z,13.85
2023-03-29T11:17:13.016Z,13.99
2023-03-29T11:20:17.370Z,14.19
2023-03-29T11:22:58.228Z,14.50
2023-03-29T11:25:50.127Z,13.85
2023-03-29T11:28:26.295Z,14.01
2023-03-29T11:31:03.716Z,14.15
2023-03-29T11:33:49.981Z,14.12
2023-03-29T11:36:26.435Z,14.57
2023-03-29T11:39:05.285Z,14.43
2023-03-29T11:41:39.752Z,14.52
2023-03-29T11:44:17.946Z,14.84
2023-03-29T11:46:51.122Z,14.36
2023-03-29T11:49:25.885Z,14.35
2023-03-29T11:52:00.403Z,14.69
2023-03-29T11:54:35.770Z,14.92
2023-03-29T11:57:14.074Z,14.85
2023-03-29T11:59:49.357Z,14.76
2023-03-29T12:02:26.384Z,14.70
2023-03-29T12:04:59.075Z,14.98
2023-03-29T12:07:30.345Z,14.76
2023-03-29T12:10:04.084Z,15.25
2023-03-29T12:12:44.505Z,15.03
2023-03-29T12:15:20.246Z,15.52
2023-03-29T12:17:56.801Z,16.00
2023-03-29T12:20:28.407Z,16.16
2023-03-29T12:23:00.693Z,15.94
2023-03-29T12:25:35.882Z,15.56
2023-03-29T12:28:38.783Z,15.41
2023-03-29T12:31:16.050Z,16.15
2023-03-29T12:34:24.656Z,16.38
2023-03-29T12:37:25.266Z,16.06
2023-03-29T12:40:16.988Z,16.68
2023-03-29T12:43:08.887Z,16.28
2023-03-29T12:45:59.176Z,16.06
2023-03-29T12:48:31.743Z,16.02
2023-03-29T12:51:02.160Z,16.13
2023-03-29T12:53:35.798Z,16.22
2023-03-29T12:56:17.808Z,16.07
2023-03-29T12:58:57.225Z,15.97
2023-03-29T13:01:31.659Z,15.80
2023-03-29T13:04:19.581Z,15.90
2023-03-29T13:07:07.052Z,16.19
2023-03-29T13:09:48.081Z,16.21
2023-03-29T13:12:27.745Z,16.01
2023-03-29T13:15:02.248Z,15.70
2023-03-29T13:17:45.204Z,15.44
2023-03-29T13:20:33.296Z,15.66
2023-03-29T13:23:26.799Z,15.93
2023-03-29T13:26:19.592Z,16.01
2023-03-29T13:29:10.448Z,16.16
2023-03-29T13:31:46.914Z,16.41
2023-03-29T13:34:34.392Z,16.58
2023-03-29T13:37:21.193Z,17.19
2023-03-29T13:39:53.844Z,16.75
2023-03-29T13:42:28.020Z,17.10
2023-03-29T13:45:27.243Z,16.81
2023-03-29T13:48:05.994Z,17.12
2023-03-29T13:50:41.584Z,16.76
2023-03-29T13:53:21.934Z,17.02
2023-03-29T13:55:55.319Z,16.75
2023-03-29T13:58:37.801Z,17.16
2023-03-29T14:01:14.358Z,17.09
2023-03-29T14:03:46.402Z,17.09
2023-03-29T14:06:22.925Z,17.03
2023-03-29T14:08:52.673Z,16.97
2023-03-29T14:11:25.574Z,16.62
2023-03-29T14:13:57.038Z,16.38
2023-03-29T14:16:29.130Z,16.48
2023-03-29T14:19:00.410Z,16.58
2023-03-29T14:21:30.466Z,16.63
2023-03-29T14:24:03.827Z,16.47
2023-03-29T14:26:34.392Z,16.50
2023-03-29T14:29:04.293Z,16.63
2023-03-29T14:31:35.686Z,16.80
2023-03-29T14:34:08.183Z,17.13
2023-03-29T14:36:39.828Z,16.94
2023-03-29T14:39:16.171Z,16.76
2023-03-29T14:41:52.972Z,16.37
2023-03-29T14:44:24.269Z,16.67
2023-03-29T14:46:54.885Z,16.27
2023-03-29T14:49:24.497Z,16.63
2023-03-29T14:51:56.879Z,16.72
2023-03-29T14:54:28.135Z,16.64
2023-03-29T14:56:58.410Z,16.39
2023-03-29T14:59:36.732Z,16.54
2023-03-29T15:02:06.521Z,16.54
2023-03-29T15:04:39.644Z,16.83
2023-03-29T15:07:10.594Z,16.66
2023-03-29T15:09:41.024Z,16.76
2023-03-29T15:12:17.893Z,16.78
2023-03-29T15:14:49.631Z,16.81
2023-03-29T15:17:42.670Z,17.12
2023-03-29T15:20:25.947Z,17.22
2023-03-29T15:23:01.257Z,17.43
2023-03-29T15:25:36.729Z,17.25
2023-03-29T15:28:06.198Z,17.14
2023-03-29T15:30:39.439Z,16.73
2023-03-29T15:33:17.761Z,16.89
2023-03-29T15:35:51.153Z,16.96
2023-03-29T15:38:30.119Z,16.97
2023-03-29T15:40:58.792Z,17.04
2023-03-29T15:43:27.984Z,17.22
2023-03-29T15:45:56.481Z,17.28
2023-03-29T15:48:27.220Z,17.38
2023-03-29T15:50:58.238Z,17.22
2023-03-29T15:53:29.331Z,17.18
2023-03-29T15:56:02.877Z,16.90
2023-03-29T15:58:33.843Z,16.54
2023-03-29T16:01:12.319Z,16.87
2023-03-29T16:03:41.575Z,16.55
2023-03-29T16:06:12.260Z,16.65
2023-03-29T16:08:41.995Z,16.55
2023-03-29T16:11:11.542Z,16.66
2023-03-29T16:13:39.766Z,16.64
2023-03-29T16:16:11.294Z,16.80
2023-03-29T16:18:39.648Z,16.90
2023-03-29T16:21:12.604Z,16.48
2023-03-29T16:23:42.907Z,16.62
2023-03-29T16:26:13.279Z,16.71
2023-03-29T16:28:42.063Z,16.39
2023-03-29T16:31:11.988Z,16.67
2023-03-29T16:33:40.687Z,16.50
2023-03-29T16:36:10.187Z,16.45
2023-03-29T16:38:38.507Z,16.20
2023-03-29T16:41:08.823Z,16.32
2023-03-29T16:43:38.696Z,16.25
2023-03-29T16:46:08.760Z,16.15
2023-03-29T16:48:37.168Z,16.10
2023-03-29T16:51:06.882Z,16.24
2023-03-29T16:53:35.612Z,16.12
2023-03-29T16:56:04.289Z,16.02
2023-03-29T16:58:34.296Z,16.09
2023-03-29T17:01:09.865Z,16.03
2023-03-29T17:03:38.572Z,16.21
2023-03-29T17:06:08.851Z,16.36
2023-03-29T17:08:38.745Z,16.51
2023-03-29T17:11:07.818Z,16.57
2023-03-29T17:13:37.841Z,16.50
2023-03-29T17:16:07.521Z,16.30
2023-03-29T17:18:36.207Z,16.47
2023-03-29T17:21:04.841Z,16.44
2023-03-29T17:23:33.050Z,16.31
2023-03-29T17:26:02.089Z,16.42
2023-03-29T17:28:30.597Z,16.22
2023-03-29T17:31:00.328Z,16.25
2023-03-29T17:33:28.617Z,16.33
2023-03-29T17:35:57.502Z,16.27
2023-03-29T17:38:26.700Z,16.28
2023-03-29T17:40:55.579Z,16.38
2023-03-29T17:43:24.151Z,16.40
2023-03-29T17:45:53.475Z,16.34
2023-03-29T17:48:25.088Z,16.41
2023-03-29T17:50:56.408Z,16.28
2023-03-29T17:53:24.663Z,16.36
2023-03-29T17:55:53.325Z,16.18
2023-03-29T17:58:21.469Z,16.05
2023-03-29T18:00:49.644Z,15.90
2023-03-29T18:03:18.917Z,15.99
2023-03-29T18:05:48.983Z,15.82
2023-03-29T18:08:20.326Z,15.62
2023-03-29T18:10:48.604Z,15.77
2023-03-29T18:13:16.732Z,15.66
2023-03-29T18:15:45.247Z,15.52
2023-03-29T18:18:18.997Z,15.66
2023-03-29T18:21:04.899Z,15.59
2023-03-29T18:23:35.902Z,15.63
2023-03-29T18:26:06.757Z,15.25
2023-03-29T18:28:40.087Z,15.39
2023-03-29T18:31:15.688Z,15.35
2023-03-29T18:33:44.642Z,15.03
2023-03-29T18:36:16.080Z,15.28
2023-03-29T18:38:47.157Z,15.41
2023-03-29T18:41:16.075Z,15.36
2023-03-29T18:43:50.940Z,15.46
2023-03-29T18:46:19.891Z,15.49
2023-03-29T18:48:49.076Z,15.53
2023-03-29T18:52:33.252Z,15.05
2023-03-29T18:55:22.310Z,15.04
2023-03-29T18:58:03.972Z,14.99
2023-03-29T19:00:32.376Z,15.07
2023-03-29T19:03:02.767Z,15.07
2023-03-29T19:08:33.012Z,14.90
2023-03-29T19:15:14.160Z,15.07
2023-03-29T19:17:44.425Z,15.08
2023-03-29T19:20:20.493Z,14.99
2023-03-29T19:22:53.000Z,15.23
2023-03-29T19:25:36.360Z,15.13
2023-03-29T19:28:11.974Z,14.98
2023-03-29T19:30:43.371Z,15.17
2023-03-29T19:33:15.130Z,15.07
2023-03-29T19:35:48.781Z,14.97
2023-03-29T19:38:20.066Z,15.09
2023-03-29T19:40:52.681Z,14.88
2023-03-29T19:43:24.769Z,14.95
2023-03-29T19:46:08.338Z,14.98
2023-03-29T19:48:38.860Z,15.04
2023-03-29T19:51:10.114Z,15.01
2023-03-29T19:53:41.723Z,14.91
2023-03-29T19:56:14.412Z,14.99
2023-03-29T19:58:43.312Z,14.91
2023-03-29T20:01:12.562Z,15.08
2023-03-29T20:03:43.554Z,15.03
2023-03-29T20:06:15.987Z,15.18
2023-03-29T20:08:54.181Z,15.04
2023-03-29T20:11:24.707Z,15.07
2023-03-29T20:13:53.136Z,15.13
2023-03-29T20:16:26.174Z,15.03
2023-03-29T20:19:04.934Z,15.07
2023-03-29T20:21:37.254Z,15.17
2023-03-29T20:24:09.696Z,15.16
2023-03-29T20:26:45.613Z,15.18
2023-03-29T20:29:17.714Z,15.20
2023-03-29T20:32:01.309Z,15.04
2023-03-29T20:34:30.224Z,15.07
2023-03-29T20:37:00.841Z,15.17
2023-03-29T20:39:31.332Z,15.31
2023-03-29T20:42:01.636Z,15.18
2023-03-29T20:44:31.553Z,15.23
2023-03-29T20:47:08.307Z,15.19
2023-03-29T20:49:38.214Z,15.17
2023-03-29T20:52:08.853Z,15.11
2023-03-29T20:54:38.611Z,15.23
2023-03-29T20:57:08.624Z,15.23
2023-03-29T20:59:37.909Z,15.24
2023-03-29T21:02:06.206Z,15.21
2023-03-29T21:04:39.877Z,15.23
2023-03-29T21:07:08.438Z,15.22
2023-03-29T21:09:37.393Z,15.03
2023-03-29T21:12:07.605Z,15.26
2023-03-29T21:14:35.875Z,15.16
2023-03-29T21:17:04.086Z,15.11
2023-03-29T21:19:32.504Z,15.16
2023-03-29T21:22:01.127Z,15.19
2023-03-29T21:24:33.276Z,15.23
2023-03-29T21:27:01.556Z,15.24
2023-03-29T21:29:31.264Z,15.11
2023-03-29T21:32:00.109Z,15.14
2023-03-29T21:34:28.533Z,15.21
2023-03-29T21:36:56.732Z,15.31
2023-03-29T21:39:27.344Z,15.23
2023-03-29T21:41:55.857Z,15.15
2023-03-29T21:44:24.014Z,15.27
2023-03-29T21:46:53.661Z,15.04
2023-03-29T21:49:22.585Z,15.17
2023-03-29T21:51:51.256Z,15.07
2023-03-29T21:54:19.530Z,15.08
2023-03-29T21:56:47.780Z,15.14
2023-03-29T21:59:16.402Z,15.11
2023-03-29T22:01:45.487Z,15.16
2023-03-29T22:04:25.552Z,15.23
2023-03-29T22:07:02.705Z,15.31
2023-03-29T22:09:31.135Z,15.23
2023-03-29T22:11:59.622Z,15.26
2023-03-29T22:14:29.338Z,15.23
2023-03-29T22:16:57.558Z,15.27
2023-03-29T22:19:29.879Z,15.23
2023-03-29T22:22:01.333Z,15.22
2023-03-29T22:24:29.831Z,15.22
2023-03-29T22:26:58.037Z,15.45
2023-03-29T22:29:26.538Z,15.50
2023-03-29T22:31:54.802Z,15.43
2023-03-29T22:34:23.071Z,15.37
2023-03-29T22:36:52.676Z,15.46
2023-03-29T22:39:22.866Z,15.46
2023-03-29T22:41:51.333Z,15.43
2023-03-29T22:44:19.470Z,15.30
2023-03-29T22:46:47.749Z,15.38
2023-03-29T22:49:16.295Z,15.40
2023-03-29T22:51:44.584Z,15.51
2023-03-29T22:54:14.216Z,15.42
2023-03-29T22:56:42.527Z,15.51
2023-03-29T22:59:10.903Z,15.51
2023-03-29T23:01:39.149Z,15.48
2023-03-29T23:04:07.577Z,15.56
2023-03-29T23:06:35.924Z,15.62
2023-03-29T23:09:04.536Z,15.52
2023-03-29T23:11:34.051Z,15.61
2023-03-29T23:14:03.977Z,15.59
2023-03-29T23:16:32.523Z,15.60
2023-03-29T23:19:00.742Z,15.61
2023-03-29T23:21:28.964Z,15.59
2023-03-29T23:23:57.430Z,15.67
2023-03-29T23:26:25.750Z,15.68
2023-03-29T23:28:57.289Z,15.70
2023-03-29T23:31:25.499Z,15.60
2023-03-29T23:33:54.009Z,15.66
2023-03-29T23:36:26.977Z,15.66
2023-03-29T23:38:55.273Z,15.69
2023-03-29T23:41:28.006Z,15.64
2023-03-29T23:43:58.145Z,15.57
2023-03-29T23:46:26.549Z,15.54
2023-03-29T23:48:54.885Z,15.43
2023-03-29T23:51:27.951Z,15.53
2023-03-29T23:53:56.935Z,15.42
2023-03-29T23:56:25.237Z,15.33
2023-03-29T23:58:53.464Z,15.42
